createdAt,value
2023-08-11T00:00:54.405Z,101555.81
2023-08-11T00:02:56.115Z,101547.81
2023-08-11T00:04:58.185Z,101544.00
2023-08-11T00:06:59.829Z,101536.66
2023-08-11T00:09:01.788Z,101543.16
2023-08-11T00:11:03.436Z,101536.84
2023-08-11T00:13:07.614Z,101539.78
2023-08-11T00:15:09.651Z,101541.47
2023-08-11T00:17:12.109Z,101539.78
2023-08-11T00:19:14.502Z,101534.31
2023-08-11T00:21:16.205Z,101534.50
2023-08-11T00:23:17.802Z,101533.44
2023-08-11T00:25:19.401Z,101535.34
2023-08-11T00:27:21.031Z,101551.94
2023-08-11T00:29:22.613Z,101543.75
2023-08-11T00:31:24.464Z,101543.09
2023-08-11T00:35:33.074Z,101541.19
2023-08-11T00:37:35.410Z,101547.69
2023-08-11T00:39:37.130Z,101552.34
2023-08-11T00:41:38.746Z,101541.41
2023-08-11T00:43:40.587Z,101543.28
2023-08-11T00:47:52.499Z,101544.31
2023-08-11T00:49:54.465Z,101532.53
2023-08-11T00:51:56.132Z,101533.38
2023-08-11T00:53:59.280Z,101530.00
2023-08-11T00:58:10.459Z,101526.41
2023-08-11T01:00:17.057Z,101524.72
2023-08-11T01:02:18.895Z,101525.56
2023-08-11T01:04:21.704Z,101522.19
2023-08-11T01:07:37.259Z,101516.50
2023-08-11T01:09:48.663Z,101525.94
2023-08-11T01:12:07.091Z,101521.97
2023-08-11T01:14:20.208Z,101523.41
2023-08-11T01:16:24.919Z,101534.16
2023-08-11T01:18:29.228Z,101529.69
2023-08-11T01:20:32.430Z,101537.06
2023-08-11T01:22:36.985Z,101537.91
2023-08-11T01:24:39.135Z,101537.06
2023-08-11T01:26:40.789Z,101545.28
2023-08-11T01:30:50.114Z,101541.88
2023-08-11T01:32:55.156Z,101553.88
2023-08-11T01:34:56.788Z,101537.84
2023-08-11T01:37:02.283Z,101550.25
2023-08-11T01:39:05.883Z,101558.47
2023-08-11T01:41:07.752Z,101559.53
2023-08-11T01:43:12.344Z,101556.81
2023-08-11T01:45:16.897Z,101553.38
2023-08-11T01:47:20.172Z,101561.41
2023-08-11T01:49:25.704Z,101564.53
2023-08-11T01:51:28.260Z,101557.00
2023-08-11T01:53:29.903Z,101566.88
2023-08-11T01:55:31.856Z,101566.03
2023-08-11T01:57:39.140Z,101565.38
2023-08-11T01:59:43.913Z,101577.16
2023-08-11T02:01:45.535Z,101570.84
2023-08-11T02:03:47.420Z,101576.53
2023-08-11T02:05:49.771Z,101572.06
2023-08-11T02:07:53.015Z,101568.31
2023-08-11T02:09:55.668Z,101567.44
2023-08-11T02:11:57.305Z,101564.72
2023-08-11T02:13:58.845Z,101566.59
2023-08-11T02:16:00.590Z,101553.97
2023-08-11T02:18:02.251Z,101555.03
2023-08-11T02:20:23.164Z,101551.22
2023-08-11T02:22:25.977Z,101554.16
2023-08-11T02:24:27.562Z,101557.75
2023-08-11T02:26:29.206Z,101563.41
2023-08-11T02:28:30.864Z,101554.34
2023-08-11T02:30:33.003Z,101552.66
2023-08-11T02:32:34.917Z,101552.84
2023-08-11T02:34:37.331Z,101553.69
2023-08-11T02:36:38.889Z,101559.16
2023-08-11T02:38:41.169Z,101561.06
2023-08-11T02:40:43.154Z,101556.44
2023-08-11T02:42:49.670Z,101556.63
2023-08-11T02:44:51.511Z,101554.72
2023-08-11T02:46:53.083Z,101550.31
2023-08-11T02:48:54.815Z,101551.16
2023-08-11T02:50:56.487Z,101553.06
2023-08-11T02:52:58.091Z,101561.25
2023-08-11T02:55:00.191Z,101559.53
2023-08-11T02:57:02.822Z,101565.19
2023-08-11T02:59:04.829Z,101558.91
2023-08-11T03:01:06.440Z,101561.63
2023-08-11T03:03:08.609Z,101558.91
2023-08-11T03:05:13.683Z,101558.22
2023-08-11T03:07:17.340Z,101555.47
2023-08-11T03:09:18.995Z,101556.50
2023-08-11T03:11:20.737Z,101560.13
2023-08-11T03:13:22.788Z,101555.66
2023-08-11T03:15:24.507Z,101559.25
2023-08-11T03:17:26.353Z,101561.97
2023-08-11T03:19:27.990Z,101568.50
2023-08-11T03:21:29.636Z,101572.28
2023-08-11T03:23:31.284Z,101570.56
2023-08-11T03:25:33.005Z,101569.72
2023-08-11T03:27:35.707Z,101574.16
2023-08-11T03:29:37.353Z,101569.72
2023-08-11T03:31:38.974Z,101567.81
2023-08-11T03:33:40.754Z,101568.88
2023-08-11T03:35:42.543Z,101572.47
2023-08-11T03:37:44.410Z,101566.34
2023-08-11T03:39:47.312Z,101565.09
2023-08-11T03:41:49.077Z,101561.53
2023-08-11T03:43:50.690Z,101565.28
2023-08-11T03:45:52.855Z,101564.44
2023-08-11T03:47:54.574Z,101558.97
2023-08-11T03:49:56.293Z,101557.28
2023-08-11T03:51:58.406Z,101551.81
2023-08-11T03:54:03.473Z,101545.50
2023-08-11T03:56:08.569Z,101544.47
2023-08-11T03:58:10.455Z,101547.19
2023-08-11T04:00:16.195Z,101549.94
2023-08-11T04:02:17.738Z,101542.75
2023-08-11T04:04:19.555Z,101546.34
2023-08-11T04:06:21.309Z,101541.91
2023-08-11T04:08:22.995Z,101544.66
2023-08-11T04:10:25.652Z,101538.31
2023-08-11T04:12:27.521Z,101539.56
2023-08-11T04:14:29.142Z,101542.31
2023-08-11T04:16:30.808Z,101544.16
2023-08-11T04:18:32.418Z,101546.91
2023-08-11T04:20:34.627Z,101532.38
2023-08-11T04:22:39.058Z,101538.69
2023-08-11T04:24:40.959Z,101532.59
2023-08-11T04:26:42.610Z,101525.59
2023-08-11T04:28:44.967Z,101529.66
2023-08-11T04:30:46.625Z,101535.31
2023-08-11T04:32:48.915Z,101537.03
2023-08-11T04:34:50.534Z,101527.69
2023-08-11T04:36:52.315Z,101531.94
2023-08-11T04:38:54.000Z,101536.53
2023-08-11T04:40:55.678Z,101542.88
2023-08-11T04:42:57.282Z,101535.69
2023-08-11T04:44:59.757Z,101542.00
2023-08-11T04:47:01.468Z,101538.44
2023-08-11T04:49:03.389Z,101540.31
2023-08-11T04:51:05.034Z,101537.78
2023-08-11T04:53:06.642Z,101530.59
2023-08-11T04:55:08.973Z,101531.25
2023-08-11T04:57:10.762Z,101530.41
2023-08-11T04:59:13.256Z,101533.16
2023-08-11T05:03:22.546Z,101531.44
2023-08-11T05:05:24.487Z,101531.44
2023-08-11T05:07:26.187Z,101524.31
2023-08-11T05:09:27.838Z,101529.97
2023-08-11T05:11:30.236Z,101530.78
2023-08-11T05:13:31.972Z,101525.53
2023-08-11T05:15:33.667Z,101537.97
2023-08-11T05:17:35.662Z,101535.25
2023-08-11T05:19:37.859Z,101537.09
2023-08-11T05:21:40.584Z,101539.00
2023-08-11T05:23:42.342Z,101535.59
2023-08-11T05:25:44.113Z,101531.19
2023-08-11T05:27:46.385Z,101539.38
2023-08-11T05:29:49.335Z,101534.94
2023-08-11T05:31:51.150Z,101535.97
2023-08-11T05:33:53.434Z,101537.66
2023-08-11T05:35:54.990Z,101535.78
2023-08-11T05:37:57.347Z,101533.91
2023-08-11T05:39:59.922Z,101534.09
2023-08-11T05:42:01.744Z,101536.13
2023-08-11T05:44:04.213Z,101539.72
2023-08-11T05:46:08.759Z,101545.19
2023-08-11T05:48:10.723Z,101544.31
2023-08-11T05:50:12.397Z,101551.69
2023-08-11T05:52:14.027Z,101556.31
2023-08-11T05:54:15.727Z,101559.88
2023-08-11T05:56:17.345Z,101552.50
2023-08-11T05:58:18.953Z,101550.16
2023-08-11T06:00:21.188Z,101548.94
2023-08-11T06:02:23.059Z,101555.25
2023-08-11T06:04:24.629Z,101549.78
2023-08-11T06:06:27.690Z,101558.84
2023-08-11T06:08:29.628Z,101557.16
2023-08-11T06:10:32.056Z,101553.56
2023-08-11T06:12:33.715Z,101558.84
2023-08-11T06:14:35.285Z,101558.84
2023-08-11T06:16:36.880Z,101559.72
2023-08-11T06:18:39.044Z,101556.13
2023-08-11T06:20:42.035Z,101550.84
2023-08-11T06:22:44.432Z,101554.25
2023-08-11T06:24:46.002Z,101552.38
2023-08-11T06:26:47.913Z,101554.25
2023-08-11T06:28:49.903Z,101558.69
2023-08-11T06:30:51.683Z,101559.72
2023-08-11T06:32:53.294Z,101561.59
2023-08-11T06:34:55.135Z,101564.50
2023-08-11T06:36:56.735Z,101561.59
2023-08-11T06:38:58.456Z,101564.31
2023-08-11T06:41:00.594Z,101568.75
2023-08-11T06:43:02.469Z,101565.00
2023-08-11T06:45:05.128Z,101561.59
2023-08-11T06:47:07.125Z,101569.63
2023-08-11T06:49:09.092Z,101567.94
2023-08-11T06:51:10.837Z,101567.06
2023-08-11T06:53:12.525Z,101572.53
2023-08-11T06:55:14.152Z,101588.78
2023-08-11T06:57:18.595Z,101593.19
2023-08-11T06:59:20.326Z,101598.66
2023-08-11T07:01:21.966Z,101596.78
2023-08-11T07:03:24.039Z,101593.88
2023-08-11T07:05:26.202Z,101595.72
2023-08-11T07:07:27.824Z,101596.78
2023-08-11T07:09:29.834Z,101597.44
2023-08-11T07:11:31.472Z,101599.13
2023-08-11T07:13:33.118Z,101607.34
2023-08-11T07:15:37.357Z,101610.91
2023-08-11T07:17:40.606Z,101606.31
2023-08-11T07:19:42.571Z,101611.78
2023-08-11T07:21:44.360Z,101613.66
2023-08-11T07:23:46.006Z,101615.53
2023-08-11T07:25:47.599Z,101618.94
2023-08-11T07:27:49.199Z,101623.56
2023-08-11T07:29:50.945Z,101621.00
2023-08-11T07:31:52.656Z,101638.75
2023-08-11T07:33:54.248Z,101641.50
2023-08-11T07:35:55.931Z,101636.00
2023-08-11T07:37:57.997Z,101638.56
2023-08-11T07:39:59.816Z,101634.97
2023-08-11T07:42:04.096Z,101639.22
2023-08-11T07:44:06.035Z,101639.22
2023-08-11T07:46:07.794Z,101644.50
2023-08-11T07:48:09.457Z,101643.47
2023-08-11T07:50:11.540Z,101648.75
2023-08-11T07:52:13.393Z,101646.84
2023-08-11T07:54:15.229Z,101647.50
2023-08-11T07:56:16.953Z,101643.75
2023-08-11T07:58:19.013Z,101655.34
2023-08-11T08:00:25.887Z,101651.56
2023-08-11T08:02:27.575Z,101652.22
2023-08-11T08:04:29.322Z,101656.84
2023-08-11T08:06:33.986Z,101662.13
2023-08-11T08:08:35.589Z,101659.22
2023-08-11T08:10:37.206Z,101665.38
2023-08-11T08:12:39.744Z,101659.72
2023-08-11T08:14:44.404Z,101659.53
2023-08-11T08:16:46.217Z,101662.91
2023-08-11T08:18:48.043Z,101654.72
2023-08-11T08:20:49.661Z,101660.81
2023-08-11T08:22:51.231Z,101662.34
2023-08-11T08:24:53.323Z,101665.09
2023-08-11T08:26:55.022Z,101656.22
2023-08-11T08:28:56.580Z,101656.69
2023-08-11T08:30:58.168Z,101656.50
2023-08-11T08:32:59.789Z,101649.31
2023-08-11T08:35:01.457Z,101644.34
2023-08-11T08:37:03.059Z,101643.47
2023-08-11T08:39:06.859Z,101651.47
2023-08-11T08:41:11.186Z,101647.06
2023-08-11T08:43:12.966Z,101654.91
2023-08-11T08:45:15.234Z,101655.75
2023-08-11T08:47:19.198Z,101650.66
2023-08-11T08:49:26.606Z,101657.25
2023-08-11T08:51:29.876Z,101643.59
2023-08-11T08:53:32.218Z,101649.69
2023-08-11T08:55:34.454Z,101644.91
2023-08-11T08:57:36.232Z,101644.91
2023-08-11T08:59:38.933Z,101649.31
2023-08-11T09:01:42.178Z,101647.47
2023-08-11T09:03:44.793Z,101656.50
2023-08-11T09:05:46.511Z,101655.47
2023-08-11T09:07:48.856Z,101666.22
2023-08-11T09:09:50.457Z,101660.56
2023-08-11T09:11:52.098Z,101664.97
2023-08-11T09:13:54.001Z,101651.31
2023-08-11T09:15:55.829Z,101649.63
2023-08-11T09:17:59.765Z,101651.97
2023-08-11T09:20:01.527Z,101655.56
2023-08-11T09:22:03.708Z,101657.25
2023-08-11T09:24:10.378Z,101651.59
2023-08-11T09:26:12.003Z,101657.91
2023-08-11T09:28:13.865Z,101654.97
2023-08-11T09:30:15.484Z,101674.13
2023-08-11T09:32:17.106Z,101672.91
2023-08-11T09:34:19.898Z,101677.38
2023-08-11T09:36:21.623Z,101679.06
2023-08-11T09:38:26.370Z,101682.69
2023-08-11T09:40:28.280Z,101683.53
2023-08-11T09:48:54.666Z,101684.84
2023-08-11T09:50:59.918Z,101675.56
2023-08-11T09:53:05.680Z,101687.00
2023-08-11T09:55:10.682Z,101691.63
2023-08-11T09:57:14.721Z,101695.22
2023-08-11T09:59:20.235Z,101683.41
2023-08-11T10:01:22.764Z,101689.56
2023-08-11T10:03:31.770Z,101692.94
2023-08-11T10:05:36.787Z,101697.38
2023-08-11T10:07:43.199Z,101694.47
2023-08-11T10:09:46.587Z,101700.13
2023-08-11T10:11:48.952Z,101700.78
2023-08-11T10:13:50.903Z,101694.28
2023-08-11T10:15:53.336Z,101689.44
2023-08-11T10:17:58.027Z,101694.91
2023-08-11T10:20:05.666Z,101688.22
2023-08-11T10:22:08.039Z,101680.84
2023-08-11T10:24:10.868Z,101677.06
2023-08-11T10:26:13.228Z,101673.31
2023-08-11T10:28:16.683Z,101668.66
2023-08-11T10:30:19.534Z,101673.94
2023-08-11T10:34:30.764Z,101671.03
2023-08-11T10:38:39.958Z,101667.63
2023-08-11T10:40:41.607Z,101676.94
2023-08-11T10:44:51.836Z,101670.44
2023-08-11T10:46:53.574Z,101667.69
2023-08-11T10:48:59.259Z,101674.69
2023-08-11T10:51:02.347Z,101673.63
2023-08-11T10:53:08.208Z,101674.31
2023-08-11T10:55:11.028Z,101678.09
2023-08-11T10:57:12.811Z,101664.19
2023-08-11T10:59:17.553Z,101669.28
2023-08-11T11:01:19.307Z,101671.63
2023-08-11T11:03:21.372Z,101675.06
2023-08-11T11:05:23.457Z,101671.44
2023-08-11T11:07:26.035Z,101667.47
2023-08-11T11:09:29.129Z,101660.97
2023-08-11T11:11:32.052Z,101671.53
2023-08-11T11:13:33.835Z,101667.72
2023-08-11T11:15:35.762Z,101667.53
2023-08-11T11:17:39.125Z,101667.16
2023-08-11T11:19:41.513Z,101673.69
2023-08-11T11:21:43.253Z,101675.44
2023-08-11T11:23:49.528Z,101668.31
2023-08-11T11:25:51.100Z,101667.28
2023-08-11T11:27:52.722Z,101667.28
2023-08-11T11:30:00.867Z,101673.78
2023-08-11T11:32:07.914Z,101671.91
2023-08-11T11:34:10.226Z,101669.16
2023-08-11T11:36:12.773Z,101666.44
2023-08-11T11:38:14.897Z,101668.09
2023-08-11T11:40:17.411Z,101661.59
2023-08-11T11:42:19.004Z,101660.34
2023-08-11T11:44:21.358Z,101651.09
2023-08-11T11:46:23.615Z,101655.53
2023-08-11T11:48:25.391Z,101649.84
2023-08-11T11:50:30.279Z,101658.72
2023-08-11T11:52:32.132Z,101656.84
2023-08-11T11:54:35.225Z,101655.78
2023-08-11T11:56:39.705Z,101654.53
2023-08-11T11:58:45.173Z,101658.97
2023-08-11T12:00:47.513Z,101657.75
2023-08-11T12:02:49.222Z,101659.22
2023-08-11T12:04:51.230Z,101663.66
2023-08-11T12:06:53.030Z,101654.41
2023-08-11T12:09:05.062Z,101658.66
2023-08-11T12:11:08.747Z,101661.00
2023-08-11T12:13:10.388Z,101662.28
2023-08-11T12:15:14.580Z,101661.69
2023-08-11T12:17:16.236Z,101668.47
2023-08-11T12:19:19.687Z,101668.91
2023-08-11T12:21:21.756Z,101660.28
2023-08-11T12:23:24.777Z,101667.28
2023-08-11T12:25:26.417Z,101661.78
2023-08-11T12:27:29.628Z,101656.97
2023-08-11T12:29:31.245Z,101663.94
2023-08-11T12:31:32.817Z,101664.59
2023-08-11T12:33:34.617Z,101665.28
2023-08-11T12:35:36.519Z,101661.69
2023-08-11T12:37:38.943Z,101652.19
2023-08-11T12:39:41.341Z,101650.94
2023-08-11T12:41:42.951Z,101650.13
2023-08-11T12:43:44.592Z,101649.91
2023-08-11T12:45:46.358Z,101648.00
2023-08-11T12:47:48.352Z,101649.91
2023-08-11T12:49:50.678Z,101639.78
2023-08-11T12:51:52.486Z,101637.03
2023-08-11T12:53:54.180Z,101626.06
2023-08-11T12:55:55.739Z,101633.44
2023-08-11T12:57:57.479Z,101629.63
2023-08-11T12:59:59.394Z,101641.47
2023-08-11T13:02:01.005Z,101636.00
2023-08-11T13:04:05.005Z,101638.06
2023-08-11T13:06:06.645Z,101635.31
2023-08-11T13:08:08.358Z,101630.91
2023-08-11T13:10:11.812Z,101633.19
2023-08-11T13:12:13.619Z,101630.25
2023-08-11T13:14:15.322Z,101634.06
2023-08-11T13:16:17.377Z,101634.06
2023-08-11T13:18:19.169Z,101624.13
2023-08-11T13:20:22.214Z,101628.56
2023-08-11T13:22:23.929Z,101628.78
2023-08-11T13:24:25.520Z,101635.94
2023-08-11T13:26:27.155Z,101635.09
2023-08-11T13:28:28.817Z,101627.91
2023-08-11T13:30:32.375Z,101629.59
2023-08-11T13:32:34.237Z,101640.19
2023-08-11T13:34:35.896Z,101639.97
2023-08-11T13:36:37.534Z,101632.59
2023-08-11T13:38:39.141Z,101636.81
2023-08-11T13:40:40.732Z,101636.63
2023-08-11T13:42:43.541Z,101644.66
2023-08-11T13:44:45.410Z,101653.34
2023-08-11T13:46:47.158Z,101647.00
2023-08-11T13:48:48.818Z,101652.75
2023-08-11T13:50:50.485Z,101646.84
2023-08-11T13:52:52.228Z,101656.75
2023-08-11T13:54:58.714Z,101654.47
2023-08-11T13:57:00.338Z,101659.75
2023-08-11T13:59:02.785Z,101651.13
2023-08-11T14:01:04.602Z,101649.00
2023-08-11T14:03:06.401Z,101641.44
2023-08-11T14:05:08.561Z,101643.56
2023-08-11T14:07:22.967Z,101650.34
2023-08-11T14:09:30.528Z,101651.00
2023-08-11T14:11:32.367Z,101649.72
2023-08-11T14:13:34.270Z,101646.56
2023-08-11T14:15:36.795Z,101646.56
2023-08-11T14:17:38.519Z,101649.09
2023-08-11T14:19:40.292Z,101643.63
2023-08-11T14:21:42.563Z,101642.38
2023-08-11T14:23:44.555Z,101638.59
2023-08-11T14:25:47.540Z,101634.78
2023-08-11T14:27:49.233Z,101638.38
2023-08-11T14:29:50.893Z,101634.78
2023-08-11T14:31:52.580Z,101632.88
2023-08-11T14:33:54.353Z,101636.25
2023-08-11T14:36:03.506Z,101628.44
2023-08-11T14:38:05.396Z,101641.13
2023-08-11T14:40:08.238Z,101625.06
2023-08-11T14:42:10.105Z,101636.25
2023-08-11T14:44:11.896Z,101634.38
2023-08-11T14:46:13.967Z,101637.13
2023-08-11T14:48:15.706Z,101634.38
2023-08-11T14:50:17.789Z,101634.19
2023-08-11T14:52:19.560Z,101631.63
2023-08-11T14:54:21.186Z,101632.47
2023-08-11T14:56:22.863Z,101625.06
2023-08-11T14:58:24.545Z,101628.91
2023-08-11T15:00:26.215Z,101628.03
2023-08-11T15:02:27.954Z,101628.91
2023-08-11T15:04:29.689Z,101626.97
2023-08-11T15:06:31.337Z,101627.81
2023-08-11T15:08:33.128Z,101624.88
2023-08-11T15:10:35.183Z,101617.25
2023-08-11T15:12:36.800Z,101628.03
2023-08-11T15:14:38.513Z,101633.72
2023-08-11T15:16:40.195Z,101625.69
2023-08-11T15:18:42.473Z,101629.47
2023-08-11T15:20:44.022Z,101633.28
2023-08-11T15:22:45.689Z,101635.19
2023-08-11T15:24:47.351Z,101634.34
2023-08-11T15:26:48.960Z,101630.75
2023-08-11T15:28:50.979Z,101638.13
2023-08-11T15:30:52.850Z,101638.13
2023-08-11T15:32:54.537Z,101638.09
2023-08-11T15:34:56.456Z,101647.63
2023-08-11T15:36:58.198Z,101648.69
2023-08-11T15:39:00.632Z,101655.22
2023-08-11T15:41:03.398Z,101651.63
2023-08-11T15:43:06.677Z,101648.88
2023-08-11T15:45:08.946Z,101657.13
2023-08-11T15:47:11.063Z,101653.53
2023-08-11T15:49:12.630Z,101654.78
2023-08-11T15:51:14.250Z,101660.06
2023-08-11T15:53:15.903Z,101661.97
2023-08-11T15:55:24.944Z,101662.19
2023-08-11T15:57:31.795Z,101661.97
2023-08-11T15:59:33.658Z,101666.41
2023-08-11T16:01:35.462Z,101672.09
2023-08-11T16:03:37.233Z,101667.66
2023-08-11T16:05:38.981Z,101679.88
2023-08-11T16:07:40.586Z,101685.19
2023-08-11T16:09:42.165Z,101679.88
2023-08-11T16:11:45.777Z,101687.09
2023-08-11T16:13:47.421Z,101681.81
2023-08-11T16:15:49.061Z,101681.34
2023-08-11T16:17:53.308Z,101679.88
2023-08-11T16:19:55.100Z,101681.75
2023-08-11T16:21:56.745Z,101679.66
2023-08-11T16:23:58.336Z,101673.78
2023-08-11T16:26:01.133Z,101663.63
2023-08-11T16:28:02.921Z,101664.06
2023-08-11T16:30:05.982Z,101670.22
2023-08-11T16:32:11.114Z,101665.16
2023-08-11T16:34:13.010Z,101662.00
2023-08-11T16:36:14.635Z,101659.03
2023-08-11T16:38:16.260Z,101655.25
2023-08-11T16:40:18.047Z,101661.19
2023-08-11T16:42:20.053Z,101671.31
2023-08-11T16:44:21.724Z,101665.41
2023-08-11T16:46:24.279Z,101660.75
2023-08-11T16:48:25.915Z,101657.19
2023-08-11T16:50:27.567Z,101662.47
2023-08-11T16:52:29.204Z,101653.41
2023-08-11T16:54:31.072Z,101647.44
2023-08-11T16:56:32.660Z,101646.84
2023-08-11T16:58:34.526Z,101646.84
2023-08-11T17:00:36.711Z,101636.47
2023-08-11T17:02:38.404Z,101652.31
2023-08-11T17:04:40.112Z,101659.31
2023-08-11T17:06:41.928Z,101653.00
2023-08-11T17:08:43.593Z,101654.66
2023-08-11T17:10:45.381Z,101652.81
2023-08-11T17:12:48.896Z,101660.34
2023-08-11T17:14:53.579Z,101662.69
2023-08-11T17:16:55.282Z,101669.88
2023-08-11T17:18:56.992Z,101665.41
2023-08-11T17:20:59.728Z,101658.03
2023-08-11T17:23:01.336Z,101653.59
2023-08-11T17:25:03.243Z,101652.53
2023-08-11T17:27:05.563Z,101652.53
2023-08-11T17:29:07.274Z,101648.94
2023-08-11T17:31:09.119Z,101644.28
2023-08-11T17:33:13.839Z,101643.25
2023-08-11T17:35:15.984Z,101641.53
2023-08-11T17:37:17.622Z,101635.00
2023-08-11T17:39:19.468Z,101639.47
2023-08-11T17:41:21.447Z,101633.97
2023-08-11T17:43:23.060Z,101636.94
2023-08-11T17:45:24.632Z,101630.97
2023-08-11T17:47:26.284Z,101630.13
2023-08-11T17:49:27.850Z,101625.47
2023-08-11T17:51:29.751Z,101625.47
2023-08-11T17:53:31.532Z,101630.13
2023-08-11T17:55:33.949Z,101633.72
2023-08-11T17:57:36.134Z,101634.19
2023-08-11T17:59:37.734Z,101635.84
2023-08-11T18:01:39.698Z,101637.34
2023-08-11T18:03:41.467Z,101631.84
2023-08-11T18:05:43.148Z,101626.38
2023-08-11T18:07:45.567Z,101622.78
2023-08-11T18:09:47.347Z,101625.16
2023-08-11T18:11:49.133Z,101616.03
2023-08-11T18:13:50.817Z,101623.44
2023-08-11T18:15:52.522Z,101623.81
2023-08-11T18:17:54.940Z,101623.81
2023-08-11T18:19:56.537Z,101628.91
2023-08-11T18:21:58.152Z,101640.56
2023-08-11T18:23:59.891Z,101646.28
2023-08-11T18:26:02.045Z,101642.47
2023-08-11T18:28:03.888Z,101643.75
2023-08-11T18:30:06.485Z,101644.81
2023-08-11T18:32:08.380Z,101643.13
2023-08-11T18:34:10.621Z,101639.31
2023-08-11T18:36:12.372Z,101628.53
2023-08-11T18:38:13.996Z,101626.19
2023-08-11T18:40:15.957Z,101613.97
2023-08-11T18:42:17.550Z,101613.13
2023-08-11T18:44:19.369Z,101604.03
2023-08-11T18:46:21.080Z,101600.22
2023-08-11T18:48:22.938Z,101596.44
2023-08-11T18:50:24.605Z,101592.00
2023-08-11T18:52:26.406Z,101602.56
2023-08-11T18:54:28.142Z,101611.00
2023-08-11T18:56:30.543Z,101607.63
2023-08-11T18:58:32.226Z,101624.31
2023-08-11T19:00:33.840Z,101615.63
2023-08-11T19:02:35.804Z,101619.66
2023-08-11T19:04:37.509Z,101609.72
2023-08-11T19:06:41.497Z,101611.63
2023-08-11T19:08:44.131Z,101609.25
2023-08-11T19:10:46.035Z,101614.28
2023-08-11T19:12:47.694Z,101621.06
2023-08-11T19:14:49.394Z,101619.78
2023-08-11T19:16:51.075Z,101620.19
2023-08-11T19:18:52.725Z,101622.47
2023-08-11T19:20:54.615Z,101620.34
2023-08-11T19:22:57.286Z,101607.03
2023-08-11T19:24:58.859Z,101603.84
2023-08-11T19:27:00.468Z,101603.41
2023-08-11T19:29:02.240Z,101599.38
2023-08-11T19:31:04.017Z,101617.31
2023-08-11T19:33:05.654Z,101605.91
2023-08-11T19:35:07.755Z,101604.59
2023-08-11T19:37:09.486Z,101607.94
2023-08-11T19:39:11.181Z,101608.56
2023-08-11T19:41:12.909Z,101599.88
2023-08-11T19:43:14.670Z,101610.41
2023-08-11T19:45:16.268Z,101598.09
2023-08-11T19:47:17.876Z,101600.41
2023-08-11T19:49:22.881Z,101600.63
2023-08-11T19:51:24.542Z,101598.06
2023-08-11T19:53:27.481Z,101598.47
2023-08-11T19:55:29.018Z,101601.22
2023-08-11T19:57:30.760Z,101598.88
2023-08-11T19:59:32.298Z,101602.84
2023-08-11T20:01:33.910Z,101582.75
2023-08-11T20:03:35.669Z,101581.53
2023-08-11T20:05:47.180Z,101585.09
2023-08-11T20:07:48.855Z,101586.16
2023-08-11T20:09:50.481Z,101586.56
2023-08-11T20:11:52.357Z,101585.91
2023-08-11T20:13:54.024Z,101575.34
2023-08-11T20:16:00.993Z,101571.09
2023-08-11T20:18:02.779Z,101575.94
2023-08-11T20:20:05.471Z,101581.81
2023-08-11T20:22:07.322Z,101572.09
2023-08-11T20:24:09.487Z,101568.72
2023-08-11T20:26:11.201Z,101568.91
2023-08-11T20:28:12.963Z,101555.41
2023-08-11T20:30:14.868Z,101552.88
2023-08-11T20:32:16.602Z,101555.81
2023-08-11T20:34:18.424Z,101552.44
2023-08-11T20:36:20.192Z,101555.16
2023-08-11T20:38:21.771Z,101545.84
2023-08-11T20:40:23.378Z,101550.09
2023-08-11T20:42:25.075Z,101551.13
2023-08-11T20:44:26.706Z,101554.25
2023-08-11T20:46:28.270Z,101552.56
2023-08-11T20:48:30.461Z,101546.25
2023-08-11T20:50:35.431Z,101551.94
2023-08-11T20:52:37.046Z,101554.88
2023-08-11T20:54:40.254Z,101554.19
2023-08-11T20:56:41.883Z,101549.97
2023-08-11T20:58:43.482Z,101548.91
2023-08-11T21:00:46.486Z,101560.94
2023-08-11T21:02:48.255Z,101553.97
2023-08-11T21:04:49.913Z,101560.44
2023-08-11T21:06:51.582Z,101568.84
2023-08-11T21:08:53.166Z,101570.75
2023-08-11T21:10:54.920Z,101553.69
2023-08-11T21:12:56.535Z,101562.25
2023-08-11T21:14:58.498Z,101568.59
2023-08-11T21:17:02.402Z,101556.97
2023-08-11T21:19:05.163Z,101551.50
2023-08-11T21:21:06.744Z,101538.88
2023-08-11T21:23:08.452Z,101544.53
2023-08-11T21:25:10.103Z,101539.06
2023-08-11T21:27:12.095Z,101545.59
2023-08-11T21:29:14.016Z,101546.81
2023-08-11T21:31:18.704Z,101550.63
2023-08-11T21:33:20.946Z,101562.63
2023-08-11T21:35:22.607Z,101561.09
2023-08-11T21:37:24.280Z,101559.22
2023-08-11T21:39:26.084Z,101567.44
2023-08-11T21:41:31.740Z,101566.78
2023-08-11T21:43:33.507Z,101573.31
2023-08-11T21:45:35.105Z,101568.03
2023-08-11T21:47:36.874Z,101570.78
2023-08-11T21:49:40.948Z,101578.13
2023-08-11T21:51:43.756Z,101570.97
2023-08-11T21:53:45.416Z,101568.44
2023-08-11T21:55:47.034Z,101560.41
2023-08-11T21:57:48.630Z,101553.22
2023-08-11T21:59:50.353Z,101557.84
2023-08-11T22:01:51.965Z,101549.63
2023-08-11T22:03:53.613Z,101550.88
2023-08-11T22:05:55.542Z,101558.91
2023-08-11T22:07:57.995Z,101559.28
2023-08-11T22:09:59.876Z,101554.84
2023-08-11T22:12:01.454Z,101558.41
2023-08-11T22:14:03.376Z,101552.31
2023-08-11T22:16:05.210Z,101553.34
2023-08-11T22:18:06.874Z,101550.59
2023-08-11T22:20:09.336Z,101547.22
2023-08-11T22:22:14.996Z,101545.50
2023-08-11T22:24:24.077Z,101549.97
2023-08-11T22:26:32.578Z,101546.59
2023-08-11T22:28:34.289Z,101548.44
2023-08-11T22:30:36.212Z,101540.25
2023-08-11T22:32:37.985Z,101541.31
2023-08-11T22:34:39.546Z,101538.75
2023-08-11T22:36:41.135Z,101546.97
2023-08-11T22:38:42.896Z,101550.75
2023-08-11T22:40:44.566Z,101535.34
2023-08-11T22:42:46.165Z,101541.22
2023-08-11T22:44:48.377Z,101538.28
2023-08-11T22:46:51.109Z,101533.88
2023-08-11T22:48:52.835Z,101536.59
2023-08-11T22:50:55.074Z,101530.47
2023-08-11T22:52:56.720Z,101535.09
2023-08-11T22:54:58.352Z,101535.09
2023-08-11T22:56:59.973Z,101533.38
2023-08-11T22:59:01.774Z,101530.84
2023-08-11T23:01:03.371Z,101526.22
2023-08-11T23:03:06.410Z,101520.94
2023-08-11T23:05:09.272Z,101519.91
2023-08-11T23:07:11.085Z,101519.25
2023-08-11T23:09:13.002Z,101512.06
2023-08-11T23:11:14.586Z,101501.31
2023-08-11T23:13:16.288Z,101503.03
2023-08-11T23:15:19.062Z,101500.28
2023-08-11T23:17:26.128Z,101493.94
2023-08-11T23:19:27.719Z,101490.38
2023-08-11T23:21:30.324Z,101491.41
2023-08-11T23:23:31.915Z,101495.19
2023-08-11T23:25:34.172Z,101494.13
2023-08-11T23:27:35.971Z,101490.75
2023-08-11T23:29:37.950Z,101492.47
2023-08-11T23:31:42.869Z,101492.66
2023-08-11T23:33:45.085Z,101487.19
2023-08-11T23:35:46.904Z,101486.50
2023-08-11T23:37:48.518Z,101481.03
2023-08-11T23:39:50.127Z,101484.84
2023-08-11T23:41:52.027Z,101485.88